Granada, Minnesota
Current Conditions -  °F | °C
As of 8:55 PM on Friday 19 Dec 2014 (Local Time) from KFRM Reporting Station
Overcast Overcast  
Wind Chill: 21°   Ceiling: 1400
Heat Index: 30°   Visibility: 6mi
Dew Point: 25°   Wind: 10mph
Humidity: 80%   Direction: 160°SSE
Pressure: 30.13"   Gusts: NA
Location:  43.7°N, 94.35°W
Report Text: KFRM 200255Z AUTO 16009KT 6SM OVC014 M01/M04 A3013 RMK AO1 57007
Loading
Personal Weather Stations






























Interactive Weather Map New forecast layout! Learn more

10-Day Weather Forecast

Advertisements
Track Severe Weather on mobile